sensor_id;sensor_type;location;lat;lon;timestamp;pressure;altitude;pressure_sealevel;temperature;humidity
80504;BME280;69825;51.190;6.808;2023-06-24T00:02:06;102162.41;;;28.56;42.23
80504;BME280;69825;51.190;6.808;2023-06-24T00:04:31;102158.38;;;28.52;42.17
80504;BME280;69825;51.190;6.808;2023-06-24T00:06:56;102155.16;;;28.55;42.31
80504;BME280;69825;51.190;6.808;2023-06-24T00:09:25;102161.56;;;28.56;42.17
80504;BME280;69825;51.190;6.808;2023-06-24T00:11:53;102155.63;;;28.52;42.28
80504;BME280;69825;51.190;6.808;2023-06-24T00:14:18;102167.13;;;28.56;42.30
80504;BME280;69825;51.190;6.808;2023-06-24T00:16:43;102166.25;;;28.55;42.26
80504;BME280;69825;51.190;6.808;2023-06-24T00:19:09;102159.44;;;28.51;42.21
80504;BME280;69825;51.190;6.808;2023-06-24T00:21:34;102156.88;;;28.56;42.23
80504;BME280;69825;51.190;6.808;2023-06-24T00:24:01;102153.44;;;28.54;42.27
80504;BME280;69825;51.190;6.808;2023-06-24T00:26:30;102147.91;;;28.48;42.20
80504;BME280;69825;51.190;6.808;2023-06-24T00:28:57;102159.00;;;28.54;42.24
80504;BME280;69825;51.190;6.808;2023-06-24T00:31:22;102156.22;;;28.54;42.30
80504;BME280;69825;51.190;6.808;2023-06-24T00:33:48;102148.34;;;28.51;42.34
80504;BME280;69825;51.190;6.808;2023-06-24T00:36:14;102156.00;;;28.56;42.39
80504;BME280;69825;51.190;6.808;2023-06-24T00:38:40;102159.84;;;28.55;42.18
80504;BME280;69825;51.190;6.808;2023-06-24T00:41:05;102156.22;;;28.54;42.34
80504;BME280;69825;51.190;6.808;2023-06-24T00:43:31;102144.94;;;28.49;42.28
80504;BME280;69825;51.190;6.808;2023-06-24T00:45:57;102161.56;;;28.56;42.37
80504;BME280;69825;51.190;6.808;2023-06-24T00:48:23;102166.25;;;28.55;42.24
80504;BME280;69825;51.190;6.808;2023-06-24T00:50:49;102164.56;;;28.54;42.21
80504;BME280;69825;51.190;6.808;2023-06-24T00:53:16;102156.22;;;28.54;42.11
80504;BME280;69825;51.190;6.808;2023-06-24T00:55:41;102160.72;;;28.55;42.29
80504;BME280;69825;51.190;6.808;2023-06-24T00:58:06;102150.66;;;28.54;42.19
80504;BME280;69825;51.190;6.808;2023-06-24T01:00:32;102161.78;;;28.54;42.33
80504;BME280;69825;51.190;6.808;2023-06-24T01:02:59;102164.56;;;28.54;42.29
80504;BME280;69825;51.190;6.808;2023-06-24T01:05:26;102160.31;;;28.52;42.20
80504;BME280;69825;51.190;6.808;2023-06-24T01:07:52;102160.06;;;28.53;42.27
80504;BME280;69825;51.190;6.808;2023-06-24T01:10:22;102162.84;;;28.53;42.27
80504;BME280;69825;51.190;6.808;2023-06-24T01:12:48;102153.91;;;28.51;41.76
80504;BME280;69825;51.190;6.808;2023-06-24T01:15:14;102152.84;;;28.52;42.14
80504;BME280;69825;51.190;6.808;2023-06-24T01:18:07;102153.03;;;28.51;42.25
80504;BME280;69825;51.190;6.808;2023-06-24T01:32:06;102148.34;;;28.51;42.06
80504;BME280;69825;51.190;6.808;2023-06-24T01:34:37;102155.63;;;28.52;42.11
80504;BME280;69825;51.190;6.808;2023-06-24T01:37:24;102154.97;;;28.50;42.24
80504;BME280;69825;51.190;6.808;2023-06-24T01:40:00;102150.88;;;28.53;42.16
80504;BME280;69825;51.190;6.808;2023-06-24T01:42:36;102156.22;;;28.54;42.09
80504;BME280;69825;51.190;6.808;2023-06-24T01:45:02;102155.63;;;28.52;42.20
80504;BME280;69825;51.190;6.808;2023-06-24T01:47:29;102143.66;;;28.52;42.17
80504;BME280;69825;51.190;6.808;2023-06-24T01:49:57;102149.41;;;28.50;42.12
80504;BME280;69825;51.190;6.808;2023-06-24T01:52:25;102138.13;;;28.45;42.28
80504;BME280;69825;51.190;6.808;2023-06-24T01:54:55;102144.06;;;28.49;41.96
80504;BME280;69825;51.190;6.808;2023-06-24T01:57:22;102147.50;;;28.51;42.14
80504;BME280;69825;51.190;6.808;2023-06-24T01:59:48;102147.50;;;28.51;42.13
80504;BME280;69825;51.190;6.808;2023-06-24T02:02:17;102145.78;;;28.50;42.19
80504;BME280;69825;51.190;6.808;2023-06-24T02:04:45;102141.09;;;28.50;42.28
80504;BME280;69825;51.190;6.808;2023-06-24T02:07:11;102128.50;;;28.41;42.15
80504;BME280;69825;51.190;6.808;2023-06-24T02:09:38;102142.16;;;28.49;42.08
80504;BME280;69825;51.190;6.808;2023-06-24T02:12:05;102129.31;;;28.48;42.10
80504;BME280;69825;51.190;6.808;2023-06-24T02:14:31;102127.63;;;28.47;42.03
80504;BME280;69825;51.190;6.808;2023-06-24T02:16:59;102127.41;;;28.49;42.22
80504;BME280;69825;51.190;6.808;2023-06-24T02:19:31;102135.94;;;28.47;42.01
80504;BME280;69825;51.190;6.808;2023-06-24T02:21:58;102132.09;;;28.48;42.23
80504;BME280;69825;51.190;6.808;2023-06-24T02:24:26;102137.66;;;28.48;42.17
80504;BME280;69825;51.190;6.808;2023-06-24T02:26:53;102137.66;;;28.48;42.17
80504;BME280;69825;51.190;6.808;2023-06-24T02:29:19;102130.41;;;28.47;42.07
80504;BME280;69825;51.190;6.808;2023-06-24T02:31:45;102130.41;;;28.47;41.96
80504;BME280;69825;51.190;6.808;2023-06-24T02:34:11;102136.81;;;28.48;42.42
80504;BME280;69825;51.190;6.808;2023-06-24T02:36:36;102143.22;;;28.48;42.12
80504;BME280;69825;51.190;6.808;2023-06-24T02:39:02;102137.66;;;28.48;42.00
80504;BME280;69825;51.190;6.808;2023-06-24T02:41:27;102132.09;;;28.48;42.05
80504;BME280;69825;51.190;6.808;2023-06-24T02:43:53;102130.41;;;28.47;42.00
80504;BME280;69825;51.190;6.808;2023-06-24T02:46:19;102135.94;;;28.47;41.86
80504;BME280;69825;51.190;6.808;2023-06-24T02:48:46;102137.66;;;28.48;41.98
80504;BME280;69825;51.190;6.808;2023-06-24T02:51:13;102128.69;;;28.46;42.06
80504;BME280;69825;51.190;6.808;2023-06-24T02:53:39;102134.47;;;28.45;41.95
80504;BME280;69825;51.190;6.808;2023-06-24T02:56:06;102132.97;;;28.42;41.97
80504;BME280;69825;51.190;6.808;2023-06-24T02:58:33;102139.78;;;28.46;41.92
80504;BME280;69825;51.190;6.808;2023-06-24T03:01:01;102138.13;;;28.45;41.54
80504;BME280;69825;51.190;6.808;2023-06-24T03:03:28;102145.34;;;28.46;41.97
80504;BME280;69825;51.190;6.808;2023-06-24T03:05:55;102140.88;;;28.45;41.84
80504;BME280;69825;51.190;6.808;2023-06-24T03:08:24;102141.97;;;28.44;41.92
80504;BME280;69825;51.190;6.808;2023-06-24T03:10:56;102148.38;;;28.45;41.79
80504;BME280;69825;51.190;6.808;2023-06-24T03:13:22;102123.63;;;28.30;41.72
80504;BME280;69825;51.190;6.808;2023-06-24T03:15:48;102150.50;;;28.43;42.08
80504;BME280;69825;51.190;6.808;2023-06-24T03:18:13;102149.44;;;28.44;41.93
80504;BME280;69825;51.190;6.808;2023-06-24T03:20:38;102155.19;;;28.42;41.63
80504;BME280;69825;51.190;6.808;2023-06-24T03:23:07;102153.50;;;28.41;41.49
80504;BME280;69825;51.190;6.808;2023-06-24T03:25:33;102147.94;;;28.41;41.65
80504;BME280;69825;51.190;6.808;2023-06-24T03:27:59;102157.78;;;28.37;41.55
80504;BME280;69825;51.190;6.808;2023-06-24T03:30:26;102159.69;;;28.37;41.13
80504;BME280;69825;51.190;6.808;2023-06-24T03:32:51;102162.50;;;28.30;41.38
80504;BME280;69825;51.190;6.808;2023-06-24T03:35:17;102159.06;;;28.28;41.42
80504;BME280;69825;51.190;6.808;2023-06-24T03:37:42;102142.03;;;28.18;41.39
80504;BME280;69825;51.190;6.808;2023-06-24T03:40:08;102142.63;;;28.20;41.33
80504;BME280;69825;51.190;6.808;2023-06-24T03:42:33;102151.81;;;28.14;41.18
80504;BME280;69825;51.190;6.808;2023-06-24T03:44:59;102159.47;;;28.12;41.47
80504;BME280;69825;51.190;6.808;2023-06-24T03:47:24;102152.66;;;28.08;41.27
80504;BME280;69825;51.190;6.808;2023-06-24T03:49:50;102164.19;;;28.05;41.45
80504;BME280;69825;51.190;6.808;2023-06-24T03:52:16;102176.59;;;28.02;41.26
80504;BME280;69825;51.190;6.808;2023-06-24T03:54:42;102168.06;;;27.90;41.50
80504;BME280;69825;51.190;6.808;2023-06-24T03:57:07;102171.91;;;27.96;41.56
80504;BME280;69825;51.190;6.808;2023-06-24T03:59:34;102184.28;;;27.94;41.50
80504;BME280;69825;51.190;6.808;2023-06-24T04:01:59;102186.38;;;27.91;41.78
80504;BME280;69825;51.190;6.808;2023-06-24T04:04:26;102183.00;;;27.89;41.58
80504;BME280;69825;51.190;6.808;2023-06-24T04:06:51;102182.34;;;27.87;41.82
80504;BME280;69825;51.190;6.808;2023-06-24T04:09:16;102181.69;;;27.85;41.96
80504;BME280;69825;51.190;6.808;2023-06-24T04:11:42;102173.59;;;27.77;42.06
80504;BME280;69825;51.190;6.808;2023-06-24T04:14:07;102189.16;;;27.85;42.01
80504;BME280;69825;51.190;6.808;2023-06-24T04:16:34;102185.53;;;27.84;41.82
80504;BME280;69825;51.190;6.808;2023-06-24T04:19:00;102195.56;;;27.85;41.78
80504;BME280;69825;51.190;6.808;2023-06-24T04:21:25;102189.16;;;27.85;41.88
80504;BME280;69825;51.190;6.808;2023-06-24T04:23:51;102191.94;;;27.85;41.91
80504;BME280;69825;51.190;6.808;2023-06-24T04:26:16;102181.69;;;27.85;41.89
80504;BME280;69825;51.190;6.808;2023-06-24T04:28:42;102181.69;;;27.85;41.85
80504;BME280;69825;51.190;6.808;2023-06-24T04:31:07;102181.69;;;27.85;42.15
80504;BME280;69825;51.190;6.808;2023-06-24T04:33:32;102191.53;;;27.88;42.18
80504;BME280;69825;51.190;6.808;2023-06-24T04:35:57;102196.22;;;27.87;42.04
80504;BME280;69825;51.190;6.808;2023-06-24T04:38:25;102197.94;;;27.88;41.83
80504;BME280;69825;51.190;6.808;2023-06-24T04:40:50;102202.63;;;27.88;42.04
80504;BME280;69825;51.190;6.808;2023-06-24T04:43:15;102198.59;;;27.90;42.33
80504;BME280;69825;51.190;6.808;2023-06-24T04:45:41;102201.38;;;27.90;42.28
80504;BME280;69825;51.190;6.808;2023-06-24T04:48:06;102198.59;;;27.90;42.16
80504;BME280;69825;51.190;6.808;2023-06-24T04:50:31;102197.50;;;27.91;42.15
80504;BME280;69825;51.190;6.808;2023-06-24T04:52:58;102196.63;;;27.91;41.98
80504;BME280;69825;51.190;6.808;2023-06-24T04:55:23;102195.56;;;27.92;42.39
80504;BME280;69825;51.190;6.808;2023-06-24T04:57:49;102193.66;;;27.92;42.10
80504;BME280;69825;51.190;6.808;2023-06-24T05:00:14;102171.03;;;27.82;42.14
80504;BME280;69825;51.190;6.808;2023-06-24T05:02:40;102188.09;;;27.92;42.12
80504;BME280;69825;51.190;6.808;2023-06-24T05:05:05;102183.00;;;27.89;42.17
80504;BME280;69825;51.190;6.808;2023-06-24T05:07:30;102184.28;;;27.94;42.15
80504;BME280;69825;51.190;6.808;2023-06-24T05:09:56;102196.22;;;27.94;42.22
80504;BME280;69825;51.190;6.808;2023-06-24T05:12:21;102194.31;;;27.95;42.31
80504;BME280;69825;51.190;6.808;2023-06-24T05:14:50;102189.81;;;27.94;42.30
80504;BME280;69825;51.190;6.808;2023-06-24T05:17:20;102176.59;;;27.89;42.02
80504;BME280;69825;51.190;6.808;2023-06-24T05:19:45;102184.91;;;27.96;42.23
80504;BME280;69825;51.190;6.808;2023-06-24T05:22:11;102188.56;;;27.96;42.10
80504;BME280;69825;51.190;6.808;2023-06-24T05:24:36;102190.47;;;27.96;42.09
80504;BME280;69825;51.190;6.808;2023-06-24T05:27:05;102177.44;;;27.89;42.47
80504;BME280;69825;51.190;6.808;2023-06-24T05:29:31;102182.56;;;27.92;42.32
80504;BME280;69825;51.190;6.808;2023-06-24T05:31:57;102189.41;;;27.97;42.16
80504;BME280;69825;51.190;6.808;2023-06-24T05:34:23;102200.50;;;27.97;42.30
80504;BME280;69825;51.190;6.808;2023-06-24T05:36:49;102193.03;;;27.97;42.29
80504;BME280;69825;51.190;6.808;2023-06-24T05:39:14;102193.88;;;27.98;42.71
80504;BME280;69825;51.190;6.808;2023-06-24T05:41:39;102200.06;;;28.00;42.33
80504;BME280;69825;51.190;6.808;2023-06-24T05:44:07;102197.28;;;28.00;42.29
80504;BME280;69825;51.190;6.808;2023-06-24T05:46:34;102201.78;;;28.01;42.34
80504;BME280;69825;51.190;6.808;2023-06-24T05:48:59;102200.06;;;28.00;42.15
80504;BME280;69825;51.190;6.808;2023-06-24T05:51:24;102207.31;;;28.01;42.50
80504;BME280;69825;51.190;6.808;2023-06-24T05:53:50;102197.06;;;28.01;42.28
80504;BME280;69825;51.190;6.808;2023-06-24T05:56:15;102193.44;;;28.01;42.17
80504;BME280;69825;51.190;6.808;2023-06-24T05:58:40;102197.94;;;28.02;42.24
80504;BME280;69825;51.190;6.808;2023-06-24T06:01:07;102204.34;;;28.02;42.36
80504;BME280;69825;51.190;6.808;2023-06-24T06:03:32;102197.94;;;28.02;42.16
80504;BME280;69825;51.190;6.808;2023-06-24T06:05:58;102205.19;;;28.03;42.29
80504;BME280;69825;51.190;6.808;2023-06-24T06:08:23;102206.91;;;28.04;42.07
80504;BME280;69825;51.190;6.808;2023-06-24T06:10:48;102207.75;;;28.04;42.19
80504;BME280;69825;51.190;6.808;2023-06-24T06:13:13;102200.50;;;27.97;42.07
80504;BME280;69825;51.190;6.808;2023-06-24T06:15:39;102211.38;;;28.05;42.34
80504;BME280;69825;51.190;6.808;2023-06-24T06:18:04;102209.44;;;28.05;42.26
80504;BME280;69825;51.190;6.808;2023-06-24T06:20:30;102209.69;;;28.04;42.19
80504;BME280;69825;51.190;6.808;2023-06-24T06:22:55;102216.72;;;28.06;42.30
80504;BME280;69825;51.190;6.808;2023-06-24T06:25:20;102217.56;;;28.07;42.36
80504;BME280;69825;51.190;6.808;2023-06-24T06:27:46;102223.97;;;28.07;42.31
80504;BME280;69825;51.190;6.808;2023-06-24T06:30:11;102218.41;;;28.07;42.25
80504;BME280;69825;51.190;6.808;2023-06-24T06:32:37;102215.44;;;28.09;42.09
80504;BME280;69825;51.190;6.808;2023-06-24T06:35:03;102221.00;;;28.09;42.15
80504;BME280;69825;51.190;6.808;2023-06-24T06:37:28;102226.53;;;28.09;42.31
80504;BME280;69825;51.190;6.808;2023-06-24T06:39:53;102227.41;;;28.09;42.15
80504;BME280;69825;51.190;6.808;2023-06-24T06:42:19;102232.94;;;28.09;41.92
80504;BME280;69825;51.190;6.808;2023-06-24T06:44:44;102231.03;;;28.10;42.15
80504;BME280;69825;51.190;6.808;2023-06-24T06:47:10;102229.97;;;28.11;42.27
80504;BME280;69825;51.190;6.808;2023-06-24T06:49:36;102229.97;;;28.11;42.04
80504;BME280;69825;51.190;6.808;2023-06-24T06:52:01;102223.56;;;28.10;42.20
80504;BME280;69825;51.190;6.808;2023-06-24T06:54:26;102231.66;;;28.12;42.21
80504;BME280;69825;51.190;6.808;2023-06-24T06:56:52;102237.00;;;28.13;42.14
80504;BME280;69825;51.190;6.808;2023-06-24T06:59:17;102230.59;;;28.13;42.04
80504;BME280;69825;51.190;6.808;2023-06-24T07:01:43;102235.06;;;28.14;42.22
80504;BME280;69825;51.190;6.808;2023-06-24T07:04:08;102229.53;;;28.14;42.09
80504;BME280;69825;51.190;6.808;2023-06-24T07:06:33;102236.81;;;28.15;42.11
80504;BME280;69825;51.190;6.808;2023-06-24T07:08:59;102226.34;;;28.04;42.24
80504;BME280;69825;51.190;6.808;2023-06-24T07:11:24;102242.38;;;28.15;42.27
80504;BME280;69825;51.190;6.808;2023-06-24T07:13:51;102240.63;;;28.14;42.31
80504;BME280;69825;51.190;6.808;2023-06-24T07:16:17;102239.59;;;28.15;42.05
80504;BME280;69825;51.190;6.808;2023-06-24T07:18:43;102243.22;;;28.15;42.15
80504;BME280;69825;51.190;6.808;2023-06-24T07:21:08;102242.38;;;28.15;42.00
80504;BME280;69825;51.190;6.808;2023-06-24T07:23:33;102242.16;;;28.16;41.98
80504;BME280;69825;51.190;6.808;2023-06-24T07:25:59;102245.78;;;28.17;42.17
80504;BME280;69825;51.190;6.808;2023-06-24T07:28:24;102249.63;;;28.16;42.10
80504;BME280;69825;51.190;6.808;2023-06-24T07:30:49;102247.50;;;28.18;42.18
80504;BME280;69825;51.190;6.808;2023-06-24T07:33:15;102248.34;;;28.18;42.11
80504;BME280;69825;51.190;6.808;2023-06-24T07:35:40;102243.63;;;28.19;41.95
80504;BME280;69825;51.190;6.808;2023-06-24T07:38:05;102245.34;;;28.20;42.10
80504;BME280;69825;51.190;6.808;2023-06-24T07:40:31;102247.06;;;28.21;42.13
80504;BME280;69825;51.190;6.808;2023-06-24T07:42:56;102246.22;;;28.20;42.13
80504;BME280;69825;51.190;6.808;2023-06-24T07:45:22;102241.31;;;28.16;42.05
80504;BME280;69825;51.190;6.808;2023-06-24T07:47:47;102248.78;;;28.22;42.34
80504;BME280;69825;51.190;6.808;2023-06-24T07:50:12;102246.00;;;28.22;42.26
80504;BME280;69825;51.190;6.808;2023-06-24T07:52:38;102248.78;;;28.22;42.15
80504;BME280;69825;51.190;6.808;2023-06-24T07:55:04;102246.00;;;28.22;41.98
80504;BME280;69825;51.190;6.808;2023-06-24T07:57:30;102248.78;;;28.22;41.90
80504;BME280;69825;51.190;6.808;2023-06-24T07:59:55;102241.31;;;28.22;42.27
80504;BME280;69825;51.190;6.808;2023-06-24T08:02:21;102238.53;;;28.22;42.04
80504;BME280;69825;51.190;6.808;2023-06-24T08:04:46;102232.13;;;28.22;42.22
80504;BME280;69825;51.190;6.808;2023-06-24T08:07:11;102239.38;;;28.23;42.15
80504;BME280;69825;51.190;6.808;2023-06-24T08:09:37;102242.81;;;28.25;42.09
80504;BME280;69825;51.190;6.808;2023-06-24T08:12:02;102239.38;;;28.23;41.97
80504;BME280;69825;51.190;6.808;2023-06-24T08:14:28;102245.59;;;28.25;42.16
80504;BME280;69825;51.190;6.808;2023-06-24T08:16:53;102240.84;;;28.25;42.22
80504;BME280;69825;51.190;6.808;2023-06-24T08:19:18;102244.50;;;28.26;42.11
80504;BME280;69825;51.190;6.808;2023-06-24T08:21:44;102241.72;;;28.26;42.10
80504;BME280;69825;51.190;6.808;2023-06-24T08:24:09;102240.66;;;28.27;42.09
80504;BME280;69825;51.190;6.808;2023-06-24T08:26:35;102227.84;;;28.26;42.28
80504;BME280;69825;51.190;6.808;2023-06-24T08:29:00;102224.44;;;28.24;42.17
80504;BME280;69825;51.190;6.808;2023-06-24T08:31:25;102229.53;;;28.27;42.24
80504;BME280;69825;51.190;6.808;2023-06-24T08:33:54;102225.69;;;28.28;42.19
80504;BME280;69825;51.190;6.808;2023-06-24T08:36:23;102231.25;;;28.28;42.24
80504;BME280;69825;51.190;6.808;2023-06-24T08:38:51;102229.13;;;28.30;42.11
80504;BME280;69825;51.190;6.808;2023-06-24T08:41:16;102233.81;;;28.29;42.11
80504;BME280;69825;51.190;6.808;2023-06-24T08:43:42;102230.84;;;28.31;42.00
80504;BME280;69825;51.190;6.808;2023-06-24T08:46:08;102232.97;;;28.29;42.07
80504;BME280;69825;51.190;6.808;2023-06-24T08:48:35;102226.34;;;28.30;41.96
80504;BME280;69825;51.190;6.808;2023-06-24T08:51:07;102224.44;;;28.31;42.00
80504;BME280;69825;51.190;6.808;2023-06-24T08:53:32;102223.38;;;28.32;42.11
80504;BME280;69825;51.190;6.808;2023-06-24T08:55:58;102225.28;;;28.31;42.25
80504;BME280;69825;51.190;6.808;2023-06-24T08:58:24;102216.97;;;28.31;41.96
80504;BME280;69825;51.190;6.808;2023-06-24T09:00:49;102212.03;;;28.26;42.04
80504;BME280;69825;51.190;6.808;2023-06-24T09:03:14;102223.13;;;28.33;42.22
80504;BME280;69825;51.190;6.808;2023-06-24T09:05:40;102217.56;;;28.33;42.21
80504;BME280;69825;51.190;6.808;2023-06-24T09:08:05;102219.28;;;28.34;42.08
80504;BME280;69825;51.190;6.808;2023-06-24T09:10:35;102219.28;;;28.34;42.00
80504;BME280;69825;51.190;6.808;2023-06-24T09:13:04;102210.97;;;28.27;42.04
80504;BME280;69825;51.190;6.808;2023-06-24T09:15:34;102213.72;;;28.34;42.05
80504;BME280;69825;51.190;6.808;2023-06-24T09:18:00;102211.59;;;28.36;42.18
80504;BME280;69825;51.190;6.808;2023-06-24T09:20:27;102199.19;;;28.32;41.80
80504;BME280;69825;51.190;6.808;2023-06-24T09:22:57;102205.19;;;28.36;42.08
80504;BME280;69825;51.190;6.808;2023-06-24T09:25:23;102202.22;;;28.37;42.08
80504;BME280;69825;51.190;6.808;2023-06-24T09:27:48;102201.16;;;28.38;41.90
80504;BME280;69825;51.190;6.808;2023-06-24T09:30:23;102200.03;;;28.39;41.98
80504;BME280;69825;51.190;6.808;2023-06-24T09:32:49;102193.66;;;28.39;42.04
80504;BME280;69825;51.190;6.808;2023-06-24T09:35:18;102194.50;;;28.39;42.10
80504;BME280;69825;51.190;6.808;2023-06-24T09:37:49;102189.38;;;28.36;41.92
80504;BME280;69825;51.190;6.808;2023-06-24T09:40:14;102193.44;;;28.40;42.05
80504;BME280;69825;51.190;6.808;2023-06-24T09:42:50;102188.94;;;28.39;41.90
80504;BME280;69825;51.190;6.808;2023-06-24T09:45:27;102185.09;;;28.40;41.97
80504;BME280;69825;51.190;6.808;2023-06-24T09:47:53;102177.41;;;28.42;41.87
80504;BME280;69825;51.190;6.808;2023-06-24T09:50:19;102171.84;;;28.42;41.99
80504;BME280;69825;51.190;6.808;2023-06-24T09:52:45;102169.75;;;28.38;42.10
80504;BME280;69825;51.190;6.808;2023-06-24T09:55:14;102177.41;;;28.42;41.96
80504;BME280;69825;51.190;6.808;2023-06-24T09:57:42;102160.34;;;28.39;41.90
80504;BME280;69825;51.190;6.808;2023-06-24T10:00:09;102177.00;;;28.45;41.85
80504;BME280;69825;51.190;6.808;2023-06-24T10:02:35;102165.88;;;28.45;41.96
80504;BME280;69825;51.190;6.808;2023-06-24T10:05:01;102164.19;;;28.38;42.18
80504;BME280;69825;51.190;6.808;2023-06-24T10:07:28;102173.13;;;28.46;41.91
80504;BME280;69825;51.190;6.808;2023-06-24T10:09:53;102162.00;;;28.46;41.84
80504;BME280;69825;51.190;6.808;2023-06-24T10:12:19;102160.94;;;28.47;41.90
80504;BME280;69825;51.190;6.808;2023-06-24T10:14:45;102154.31;;;28.48;42.08
80504;BME280;69825;51.190;6.808;2023-06-24T10:17:11;102148.75;;;28.48;41.89
80504;BME280;69825;51.190;6.808;2023-06-24T10:19:41;102149.63;;;28.49;41.91
80504;BME280;69825;51.190;6.808;2023-06-24T10:22:10;102139.38;;;28.49;41.95
80504;BME280;69825;51.190;6.808;2023-06-24T10:24:39;102145.56;;;28.51;41.89
80504;BME280;69825;51.190;6.808;2023-06-24T10:27:09;102142.53;;;28.53;41.73
80504;BME280;69825;51.190;6.808;2023-06-24T10:29:38;102141.47;;;28.54;42.10
80504;BME280;69825;51.190;6.808;2023-06-24T10:32:08;102147.03;;;28.54;41.95
80504;BME280;69825;51.190;6.808;2023-06-24T10:37:09;102130.41;;;28.47;41.75
80504;BME280;69825;51.190;6.808;2023-06-24T10:44:47;102130.34;;;28.60;41.82
80504;BME280;69825;51.190;6.808;2023-06-24T10:47:13;102120.94;;;28.61;41.77
80504;BME280;69825;51.190;6.808;2023-06-24T10:49:38;102093.22;;;28.48;41.67
80504;BME280;69825;51.190;6.808;2023-06-24T10:52:03;102119.22;;;28.60;41.72
80504;BME280;69825;51.190;6.808;2023-06-24T10:54:29;102110.47;;;28.63;41.68
80504;BME280;69825;51.190;6.808;2023-06-24T10:56:54;102118.59;;;28.65;41.82
80504;BME280;69825;51.190;6.808;2023-06-24T10:59:20;102106.41;;;28.59;41.56
80504;BME280;69825;51.190;6.808;2023-06-24T11:01:53;102110.47;;;28.63;41.82
80504;BME280;69825;51.190;6.808;2023-06-24T11:04:19;102112.38;;;28.69;41.68
80504;BME280;69825;51.190;6.808;2023-06-24T11:06:57;102102.31;;;28.68;41.72
80504;BME280;69825;51.190;6.808;2023-06-24T11:09:23;102095.69;;;28.69;41.76
80504;BME280;69825;51.190;6.808;2023-06-24T11:11:48;102102.75;;;28.72;41.60
80504;BME280;69825;51.190;6.808;2023-06-24T11:14:15;102098.69;;;28.75;41.60
80504;BME280;69825;51.190;6.808;2023-06-24T11:16:41;102096.78;;;28.75;41.62
80504;BME280;69825;51.190;6.808;2023-06-24T11:19:06;102099.34;;;28.77;41.76
80504;BME280;69825;51.190;6.808;2023-06-24T11:21:31;102103.81;;;28.78;41.59
80504;BME280;69825;51.190;6.808;2023-06-24T11:24:01;102098.25;;;28.78;41.34
80504;BME280;69825;51.190;6.808;2023-06-24T11:26:26;102094.41;;;28.79;41.44
80504;BME280;69825;51.190;6.808;2023-06-24T11:28:52;102092.25;;;28.81;41.71
80504;BME280;69825;51.190;6.808;2023-06-24T11:31:17;102083.91;;;28.81;41.44
80504;BME280;69825;51.190;6.808;2023-06-24T11:33:42;102090.09;;;28.83;41.58
80504;BME280;69825;51.190;6.808;2023-06-24T11:36:17;102089.03;;;28.84;41.60
80504;BME280;69825;51.190;6.808;2023-06-24T11:38:42;102091.59;;;28.85;41.48
80504;BME280;69825;51.190;6.808;2023-06-24T11:41:08;102087.75;;;28.86;41.50
80504;BME280;69825;51.190;6.808;2023-06-24T11:43:34;102081.09;;;28.87;41.40
80504;BME280;69825;51.190;6.808;2023-06-24T11:45:59;102081.94;;;28.88;41.45
80504;BME280;69825;51.190;6.808;2023-06-24T11:48:28;102086.44;;;28.89;41.55
80504;BME280;69825;51.190;6.808;2023-06-24T11:50:54;102079.81;;;28.90;41.42
80504;BME280;69825;51.190;6.808;2023-06-24T11:53:29;102079.81;;;28.90;41.27
80504;BME280;69825;51.190;6.808;2023-06-24T11:55:55;102080.19;;;28.93;41.38
80504;BME280;69825;51.190;6.808;2023-06-24T11:58:21;102071.66;;;28.95;41.42
80504;BME280;69825;51.190;6.808;2023-06-24T12:00:48;102077.19;;;28.95;41.62
80504;BME280;69825;51.190;6.808;2023-06-24T12:03:14;102068.00;;;28.94;41.56
80504;BME280;69825;51.190;6.808;2023-06-24T12:05:40;102066.72;;;28.97;41.53
80504;BME280;69825;51.190;6.808;2023-06-24T12:08:11;102070.16;;;28.99;41.48
80504;BME280;69825;51.190;6.808;2023-06-24T12:10:37;102068.22;;;28.99;41.34
80504;BME280;69825;51.190;6.808;2023-06-24T12:13:04;102070.75;;;29.01;41.49
80504;BME280;69825;51.190;6.808;2023-06-24T12:15:31;102069.69;;;29.02;41.23
80504;BME280;69825;51.190;6.808;2023-06-24T12:17:56;102062.19;;;29.02;41.53
80504;BME280;69825;51.190;6.808;2023-06-24T12:20:24;102066.69;;;29.03;41.43
80504;BME280;69825;51.190;6.808;2023-06-24T12:22:49;102061.34;;;29.02;41.53
80504;BME280;69825;51.190;6.808;2023-06-24T12:25:16;102061.75;;;29.05;41.17
80504;BME280;69825;51.190;6.808;2023-06-24T12:27:42;102043.41;;;28.98;41.53
80504;BME280;69825;51.190;6.808;2023-06-24T12:30:10;102056.81;;;29.07;41.34
80504;BME280;69825;51.190;6.808;2023-06-24T12:32:37;102051.88;;;29.10;41.25
80504;BME280;69825;51.190;6.808;2023-06-24T12:35:03;102057.44;;;29.10;41.06
80504;BME280;69825;51.190;6.808;2023-06-24T12:37:31;102043.31;;;29.11;41.13
80504;BME280;69825;51.190;6.808;2023-06-24T12:39:57;102042.25;;;29.12;41.07
80504;BME280;69825;51.190;6.808;2023-06-24T12:42:22;102037.13;;;29.09;41.18
80504;BME280;69825;51.190;6.808;2023-06-24T12:44:48;102042.03;;;29.14;41.23
80504;BME280;69825;51.190;6.808;2023-06-24T12:47:13;102044.56;;;29.15;41.06
80504;BME280;69825;51.190;6.808;2023-06-24T12:49:38;102042.41;;;29.17;41.22
80504;BME280;69825;51.190;6.808;2023-06-24T12:52:04;102049.69;;;29.18;41.46
80504;BME280;69825;51.190;6.808;2023-06-24T12:54:29;102038.56;;;29.18;41.25
80504;BME280;69825;51.190;6.808;2023-06-24T12:56:54;102035.56;;;29.20;41.37
80504;BME280;69825;51.190;6.808;2023-06-24T12:59:20;102030.88;;;29.20;41.73
80504;BME280;69825;51.190;6.808;2023-06-24T13:01:45;102030.88;;;29.20;41.16
80504;BME280;69825;51.190;6.808;2023-06-24T13:04:11;102023.59;;;29.19;41.29
80504;BME280;69825;51.190;6.808;2023-06-24T13:06:36;102004.78;;;29.15;40.93